sensor_id;sensor_type;location;lat;lon;timestamp;P1;durP1;ratioP1;P2;durP2;ratioP2
5823;SDS011;2938;52.254;12.988;2024-01-07T00:00:08;5.82;;;3.53;;
5823;SDS011;2938;52.254;12.988;2024-01-07T00:02:34;6.03;;;3.30;;
5823;SDS011;2938;52.254;12.988;2024-01-07T00:05:01;8.73;;;5.03;;
5823;SDS011;2938;52.254;12.988;2024-01-07T00:07:26;9.43;;;4.43;;
5823;SDS011;2938;52.254;12.988;2024-01-07T00:09:52;10.98;;;3.78;;
5823;SDS011;2938;52.254;12.988;2024-01-07T00:12:17;6.25;;;3.80;;
5823;SDS011;2938;52.254;12.988;2024-01-07T00:14:43;14.98;;;3.95;;
5823;SDS011;2938;52.254;12.988;2024-01-07T00:17:09;9.02;;;5.53;;
5823;SDS011;2938;52.254;12.988;2024-01-07T00:19:35;8.73;;;3.22;;
5823;SDS011;2938;52.254;12.988;2024-01-07T00:22:03;5.78;;;3.70;;
5823;SDS011;2938;52.254;12.988;2024-01-07T00:24:29;7.43;;;4.85;;
5823;SDS011;2938;52.254;12.988;2024-01-07T00:26:54;5.47;;;3.80;;
5823;SDS011;2938;52.254;12.988;2024-01-07T00:29:20;8.75;;;4.93;;
5823;SDS011;2938;52.254;12.988;2024-01-07T00:31:45;8.38;;;3.88;;
5823;SDS011;2938;52.254;12.988;2024-01-07T00:34:11;8.82;;;3.85;;
5823;SDS011;2938;52.254;12.988;2024-01-07T00:36:36;7.30;;;3.47;;
5823;SDS011;2938;52.254;12.988;2024-01-07T00:39:02;5.07;;;3.85;;
5823;SDS011;2938;52.254;12.988;2024-01-07T00:41:28;8.00;;;4.28;;
5823;SDS011;2938;52.254;12.988;2024-01-07T00:43:55;8.20;;;3.40;;
5823;SDS011;2938;52.254;12.988;2024-01-07T00:46:20;5.90;;;3.75;;
5823;SDS011;2938;52.254;12.988;2024-01-07T00:48:46;7.10;;;3.67;;
5823;SDS011;2938;52.254;12.988;2024-01-07T00:51:11;8.73;;;4.47;;
5823;SDS011;2938;52.254;12.988;2024-01-07T00:53:37;9.00;;;4.00;;
5823;SDS011;2938;52.254;12.988;2024-01-07T00:56:02;5.07;;;3.53;;
5823;SDS011;2938;52.254;12.988;2024-01-07T00:58:28;8.40;;;3.55;;
5823;SDS011;2938;52.254;12.988;2024-01-07T01:00:53;7.75;;;3.50;;
5823;SDS011;2938;52.254;12.988;2024-01-07T01:03:19;8.70;;;4.40;;
5823;SDS011;2938;52.254;12.988;2024-01-07T01:05:46;5.90;;;3.15;;
5823;SDS011;2938;52.254;12.988;2024-01-07T01:08:11;5.65;;;3.65;;
5823;SDS011;2938;52.254;12.988;2024-01-07T01:10:36;3.92;;;3.03;;
5823;SDS011;2938;52.254;12.988;2024-01-07T01:13:02;8.18;;;3.10;;
5823;SDS011;2938;52.254;12.988;2024-01-07T01:17:53;5.05;;;3.80;;
5823;SDS011;2938;52.254;12.988;2024-01-07T01:20:18;13.63;;;4.10;;
5823;SDS011;2938;52.254;12.988;2024-01-07T01:22:44;8.10;;;3.40;;
5823;SDS011;2938;52.254;12.988;2024-01-07T01:25:09;9.60;;;4.82;;
5823;SDS011;2938;52.254;12.988;2024-01-07T01:27:35;6.35;;;3.20;;
5823;SDS011;2938;52.254;12.988;2024-01-07T01:32:26;7.28;;;3.53;;
5823;SDS011;2938;52.254;12.988;2024-01-07T01:34:51;9.10;;;3.83;;
5823;SDS011;2938;52.254;12.988;2024-01-07T01:37:17;7.82;;;4.10;;
5823;SDS011;2938;52.254;12.988;2024-01-07T01:39:42;9.10;;;2.92;;
5823;SDS011;2938;52.254;12.988;2024-01-07T01:42:07;9.50;;;3.55;;
5823;SDS011;2938;52.254;12.988;2024-01-07T01:44:33;10.93;;;6.32;;
5823;SDS011;2938;52.254;12.988;2024-01-07T01:46:59;5.38;;;3.88;;
5823;SDS011;2938;52.254;12.988;2024-01-07T01:49:25;5.85;;;2.88;;
5823;SDS011;2938;52.254;12.988;2024-01-07T01:51:51;6.25;;;2.22;;
5823;SDS011;2938;52.254;12.988;2024-01-07T01:54:18;5.20;;;3.35;;
5823;SDS011;2938;52.254;12.988;2024-01-07T01:56:44;6.97;;;3.30;;
5823;SDS011;2938;52.254;12.988;2024-01-07T01:59:09;11.88;;;3.72;;
5823;SDS011;2938;52.254;12.988;2024-01-07T02:01:36;3.92;;;2.88;;
5823;SDS011;2938;52.254;12.988;2024-01-07T02:04:02;5.30;;;3.33;;
5823;SDS011;2938;52.254;12.988;2024-01-07T02:06:27;7.88;;;3.60;;
5823;SDS011;2938;52.254;12.988;2024-01-07T02:08:52;9.32;;;3.80;;
5823;SDS011;2938;52.254;12.988;2024-01-07T02:11:21;5.95;;;2.92;;
5823;SDS011;2938;52.254;12.988;2024-01-07T02:13:47;3.03;;;2.33;;
5823;SDS011;2938;52.254;12.988;2024-01-07T02:16:13;2.17;;;1.92;;
5823;SDS011;2938;52.254;12.988;2024-01-07T02:18:40;9.68;;;2.15;;
5823;SDS011;2938;52.254;12.988;2024-01-07T02:21:09;1.98;;;1.77;;
5823;SDS011;2938;52.254;12.988;2024-01-07T02:23:38;2.35;;;1.85;;
5823;SDS011;2938;52.254;12.988;2024-01-07T02:26:04;7.88;;;3.05;;
5823;SDS011;2938;52.254;12.988;2024-01-07T02:28:29;5.78;;;2.47;;
5823;SDS011;2938;52.254;12.988;2024-01-07T02:30:55;1.75;;;1.63;;
5823;SDS011;2938;52.254;12.988;2024-01-07T02:33:20;6.35;;;2.10;;
5823;SDS011;2938;52.254;12.988;2024-01-07T02:35:46;3.63;;;1.77;;
5823;SDS011;2938;52.254;12.988;2024-01-07T02:38:12;12.50;;;2.85;;
5823;SDS011;2938;52.254;12.988;2024-01-07T02:40:44;5.28;;;2.25;;
5823;SDS011;2938;52.254;12.988;2024-01-07T02:43:10;1.73;;;1.48;;
5823;SDS011;2938;52.254;12.988;2024-01-07T02:45:35;2.08;;;1.75;;
5823;SDS011;2938;52.254;12.988;2024-01-07T02:48:01;2.30;;;1.25;;
5823;SDS011;2938;52.254;12.988;2024-01-07T02:50:27;4.13;;;2.08;;
5823;SDS011;2938;52.254;12.988;2024-01-07T02:52:52;3.13;;;1.55;;
5823;SDS011;2938;52.254;12.988;2024-01-07T02:55:17;8.55;;;2.95;;
5823;SDS011;2938;52.254;12.988;2024-01-07T02:57:43;3.55;;;2.17;;
5823;SDS011;2938;52.254;12.988;2024-01-07T03:00:08;5.57;;;1.85;;
5823;SDS011;2938;52.254;12.988;2024-01-07T03:02:34;5.20;;;2.28;;
5823;SDS011;2938;52.254;12.988;2024-01-07T03:04:59;3.17;;;1.80;;
5823;SDS011;2938;52.254;12.988;2024-01-07T03:07:24;2.65;;;1.48;;
5823;SDS011;2938;52.254;12.988;2024-01-07T03:09:50;2.35;;;1.85;;
5823;SDS011;2938;52.254;12.988;2024-01-07T03:12:15;7.28;;;2.85;;
5823;SDS011;2938;52.254;12.988;2024-01-07T03:14:41;2.88;;;1.48;;
5823;SDS011;2938;52.254;12.988;2024-01-07T03:17:06;3.53;;;1.85;;
5823;SDS011;2938;52.254;12.988;2024-01-07T03:19:32;2.25;;;1.92;;
5823;SDS011;2938;52.254;12.988;2024-01-07T03:21:57;6.10;;;3.17;;
5823;SDS011;2938;52.254;12.988;2024-01-07T03:24:23;2.58;;;1.75;;
5823;SDS011;2938;52.254;12.988;2024-01-07T03:26:48;6.65;;;3.10;;
5823;SDS011;2938;52.254;12.988;2024-01-07T03:29:14;2.58;;;1.88;;
5823;SDS011;2938;52.254;12.988;2024-01-07T03:31:39;4.63;;;2.13;;
5823;SDS011;2938;52.254;12.988;2024-01-07T03:34:04;4.05;;;2.03;;
5823;SDS011;2938;52.254;12.988;2024-01-07T03:36:35;3.20;;;1.77;;
5823;SDS011;2938;52.254;12.988;2024-01-07T03:39:00;3.53;;;1.98;;
5823;SDS011;2938;52.254;12.988;2024-01-07T03:41:26;4.15;;;2.65;;
5823;SDS011;2938;52.254;12.988;2024-01-07T03:43:51;3.53;;;2.40;;
5823;SDS011;2938;52.254;12.988;2024-01-07T03:46:18;7.63;;;2.88;;
5823;SDS011;2938;52.254;12.988;2024-01-07T03:48:44;8.18;;;2.45;;
5823;SDS011;2938;52.254;12.988;2024-01-07T03:51:09;5.90;;;2.20;;
5823;SDS011;2938;52.254;12.988;2024-01-07T03:53:34;4.15;;;2.80;;
5823;SDS011;2938;52.254;12.988;2024-01-07T03:55:59;5.43;;;2.95;;
5823;SDS011;2938;52.254;12.988;2024-01-07T03:58:25;4.72;;;2.00;;
5823;SDS011;2938;52.254;12.988;2024-01-07T04:00:50;9.07;;;2.95;;
5823;SDS011;2938;52.254;12.988;2024-01-07T04:03:16;3.20;;;2.25;;
5823;SDS011;2938;52.254;12.988;2024-01-07T04:05:41;3.92;;;2.47;;
5823;SDS011;2938;52.254;12.988;2024-01-07T04:08:09;2.55;;;1.67;;
5823;SDS011;2938;52.254;12.988;2024-01-07T04:10:34;7.05;;;3.20;;
5823;SDS011;2938;52.254;12.988;2024-01-07T04:13:00;8.70;;;2.92;;
5823;SDS011;2938;52.254;12.988;2024-01-07T04:15:25;4.93;;;3.22;;
5823;SDS011;2938;52.254;12.988;2024-01-07T04:17:50;8.00;;;2.60;;
5823;SDS011;2938;52.254;12.988;2024-01-07T04:20:16;5.85;;;2.85;;
5823;SDS011;2938;52.254;12.988;2024-01-07T04:22:41;2.05;;;1.83;;
5823;SDS011;2938;52.254;12.988;2024-01-07T04:25:10;4.07;;;3.30;;
5823;SDS011;2938;52.254;12.988;2024-01-07T04:27:36;8.00;;;2.35;;
5823;SDS011;2938;52.254;12.988;2024-01-07T04:30:02;3.47;;;2.25;;
5823;SDS011;2938;52.254;12.988;2024-01-07T04:32:29;5.15;;;2.95;;
5823;SDS011;2938;52.254;12.988;2024-01-07T04:34:54;3.78;;;2.83;;
5823;SDS011;2938;52.254;12.988;2024-01-07T04:37:19;6.25;;;3.25;;
5823;SDS011;2938;52.254;12.988;2024-01-07T04:39:45;5.55;;;2.83;;
5823;SDS011;2938;52.254;12.988;2024-01-07T04:42:10;11.93;;;3.00;;
5823;SDS011;2938;52.254;12.988;2024-01-07T04:44:35;6.63;;;3.53;;
5823;SDS011;2938;52.254;12.988;2024-01-07T04:47:01;5.88;;;2.75;;
5823;SDS011;2938;52.254;12.988;2024-01-07T04:49:26;7.78;;;3.17;;
5823;SDS011;2938;52.254;12.988;2024-01-07T04:51:51;5.80;;;3.35;;
5823;SDS011;2938;52.254;12.988;2024-01-07T04:54:17;4.43;;;2.60;;
5823;SDS011;2938;52.254;12.988;2024-01-07T04:56:43;5.53;;;3.00;;
5823;SDS011;2938;52.254;12.988;2024-01-07T04:59:09;3.90;;;2.25;;
5823;SDS011;2938;52.254;12.988;2024-01-07T05:01:35;3.85;;;2.70;;
5823;SDS011;2938;52.254;12.988;2024-01-07T05:04:02;3.13;;;2.20;;
5823;SDS011;2938;52.254;12.988;2024-01-07T05:06:27;3.53;;;2.25;;
5823;SDS011;2938;52.254;12.988;2024-01-07T05:08:53;5.40;;;2.47;;
5823;SDS011;2938;52.254;12.988;2024-01-07T05:11:18;4.32;;;2.50;;
5823;SDS011;2938;52.254;12.988;2024-01-07T05:13:44;4.35;;;2.42;;
5823;SDS011;2938;52.254;12.988;2024-01-07T05:16:17;2.55;;;2.25;;
5823;SDS011;2938;52.254;12.988;2024-01-07T05:18:44;5.10;;;2.72;;
5823;SDS011;2938;52.254;12.988;2024-01-07T05:21:13;2.83;;;2.40;;
5823;SDS011;2938;52.254;12.988;2024-01-07T05:23:39;3.75;;;1.77;;
5823;SDS011;2938;52.254;12.988;2024-01-07T05:26:05;2.08;;;1.75;;
5823;SDS011;2938;52.254;12.988;2024-01-07T05:28:30;3.85;;;2.67;;
5823;SDS011;2938;52.254;12.988;2024-01-07T05:30:55;4.15;;;1.83;;
5823;SDS011;2938;52.254;12.988;2024-01-07T05:33:21;3.58;;;1.83;;
5823;SDS011;2938;52.254;12.988;2024-01-07T05:35:46;4.63;;;1.67;;
5823;SDS011;2938;52.254;12.988;2024-01-07T05:38:12;3.55;;;1.48;;
5823;SDS011;2938;52.254;12.988;2024-01-07T05:40:38;1.70;;;1.55;;
5823;SDS011;2938;52.254;12.988;2024-01-07T05:43:04;6.53;;;1.90;;
5823;SDS011;2938;52.254;12.988;2024-01-07T05:45:29;3.05;;;2.15;;
5823;SDS011;2938;52.254;12.988;2024-01-07T05:47:54;3.35;;;1.90;;
5823;SDS011;2938;52.254;12.988;2024-01-07T05:50:20;2.42;;;2.22;;
5823;SDS011;2938;52.254;12.988;2024-01-07T05:52:45;2.33;;;1.65;;
5823;SDS011;2938;52.254;12.988;2024-01-07T05:55:11;1.55;;;1.08;;
5823;SDS011;2938;52.254;12.988;2024-01-07T05:57:36;4.97;;;1.70;;
5823;SDS011;2938;52.254;12.988;2024-01-07T06:00:02;1.65;;;1.40;;
5823;SDS011;2938;52.254;12.988;2024-01-07T06:02:27;7.28;;;1.80;;
5823;SDS011;2938;52.254;12.988;2024-01-07T06:04:53;5.20;;;1.70;;
5823;SDS011;2938;52.254;12.988;2024-01-07T06:07:18;2.67;;;1.40;;
5823;SDS011;2938;52.254;12.988;2024-01-07T06:09:43;5.22;;;2.95;;
5823;SDS011;2938;52.254;12.988;2024-01-07T06:12:09;4.97;;;2.08;;
5823;SDS011;2938;52.254;12.988;2024-01-07T06:14:34;10.77;;;3.25;;
5823;SDS011;2938;52.254;12.988;2024-01-07T06:16:59;3.00;;;1.40;;
5823;SDS011;2938;52.254;12.988;2024-01-07T06:19:25;5.40;;;1.98;;
5823;SDS011;2938;52.254;12.988;2024-01-07T06:21:51;5.88;;;2.42;;
5823;SDS011;2938;52.254;12.988;2024-01-07T06:24:16;3.08;;;1.95;;
5823;SDS011;2938;52.254;12.988;2024-01-07T06:29:07;2.83;;;1.88;;
5823;SDS011;2938;52.254;12.988;2024-01-07T06:31:34;12.55;;;2.15;;
5823;SDS011;2938;52.254;12.988;2024-01-07T06:34:00;2.90;;;1.85;;
5823;SDS011;2938;52.254;12.988;2024-01-07T06:36:25;2.15;;;1.90;;
5823;SDS011;2938;52.254;12.988;2024-01-07T06:38:51;5.88;;;2.33;;
5823;SDS011;2938;52.254;12.988;2024-01-07T06:41:17;4.38;;;2.17;;
5823;SDS011;2938;52.254;12.988;2024-01-07T06:43:42;8.23;;;2.47;;
5823;SDS011;2938;52.254;12.988;2024-01-07T06:46:07;5.40;;;2.28;;
5823;SDS011;2938;52.254;12.988;2024-01-07T06:48:33;3.42;;;2.30;;
5823;SDS011;2938;52.254;12.988;2024-01-07T06:50:58;3.90;;;1.85;;
5823;SDS011;2938;52.254;12.988;2024-01-07T06:53:24;4.30;;;1.88;;
5823;SDS011;2938;52.254;12.988;2024-01-07T06:55:49;5.47;;;2.80;;
5823;SDS011;2938;52.254;12.988;2024-01-07T06:58:15;5.75;;;2.20;;
5823;SDS011;2938;52.254;12.988;2024-01-07T07:00:40;5.03;;;2.08;;
5823;SDS011;2938;52.254;12.988;2024-01-07T07:03:06;2.50;;;1.77;;
5823;SDS011;2938;52.254;12.988;2024-01-07T07:05:36;4.68;;;2.10;;
5823;SDS011;2938;52.254;12.988;2024-01-07T07:08:01;4.15;;;2.72;;
5823;SDS011;2938;52.254;12.988;2024-01-07T07:10:27;3.55;;;2.08;;
5823;SDS011;2938;52.254;12.988;2024-01-07T07:12:53;5.75;;;2.88;;
5823;SDS011;2938;52.254;12.988;2024-01-07T07:15:19;8.77;;;2.42;;
5823;SDS011;2938;52.254;12.988;2024-01-07T07:17:44;4.03;;;2.03;;
5823;SDS011;2938;52.254;12.988;2024-01-07T07:20:13;5.60;;;2.60;;
5823;SDS011;2938;52.254;12.988;2024-01-07T07:22:39;4.25;;;1.95;;
5823;SDS011;2938;52.254;12.988;2024-01-07T07:25:05;2.97;;;1.90;;
5823;SDS011;2938;52.254;12.988;2024-01-07T07:27:33;6.20;;;2.03;;
5823;SDS011;2938;52.254;12.988;2024-01-07T07:29:59;3.47;;;2.15;;
5823;SDS011;2938;52.254;12.988;2024-01-07T07:32:24;4.50;;;2.72;;
5823;SDS011;2938;52.254;12.988;2024-01-07T07:34:50;4.15;;;2.95;;
5823;SDS011;2938;52.254;12.988;2024-01-07T07:37:15;4.35;;;2.47;;
5823;SDS011;2938;52.254;12.988;2024-01-07T07:39:41;9.05;;;3.03;;
5823;SDS011;2938;52.254;12.988;2024-01-07T07:42:06;2.75;;;2.25;;
5823;SDS011;2938;52.254;12.988;2024-01-07T07:44:31;2.50;;;2.08;;
5823;SDS011;2938;52.254;12.988;2024-01-07T07:46:57;3.40;;;2.63;;
5823;SDS011;2938;52.254;12.988;2024-01-07T07:49:22;6.05;;;2.55;;
5823;SDS011;2938;52.254;12.988;2024-01-07T07:51:47;6.00;;;2.95;;
5823;SDS011;2938;52.254;12.988;2024-01-07T07:54:13;9.07;;;2.38;;
5823;SDS011;2938;52.254;12.988;2024-01-07T07:56:39;4.22;;;2.30;;
5823;SDS011;2938;52.254;12.988;2024-01-07T07:59:04;1.90;;;1.65;;
5823;SDS011;2938;52.254;12.988;2024-01-07T08:01:31;7.10;;;2.45;;
5823;SDS011;2938;52.254;12.988;2024-01-07T08:03:56;3.80;;;2.38;;
5823;SDS011;2938;52.254;12.988;2024-01-07T08:06:22;4.68;;;1.80;;
5823;SDS011;2938;52.254;12.988;2024-01-07T08:08:48;3.80;;;2.28;;
5823;SDS011;2938;52.254;12.988;2024-01-07T08:11:13;6.13;;;2.35;;
5823;SDS011;2938;52.254;12.988;2024-01-07T08:13:39;3.08;;;2.33;;
5823;SDS011;2938;52.254;12.988;2024-01-07T08:16:06;2.42;;;1.60;;
5823;SDS011;2938;52.254;12.988;2024-01-07T08:18:31;5.55;;;2.22;;
5823;SDS011;2938;52.254;12.988;2024-01-07T08:20:57;3.42;;;2.13;;
5823;SDS011;2938;52.254;12.988;2024-01-07T08:23:23;3.38;;;2.22;;
5823;SDS011;2938;52.254;12.988;2024-01-07T08:25:50;2.45;;;1.45;;
5823;SDS011;2938;52.254;12.988;2024-01-07T08:28:17;7.35;;;2.47;;
5823;SDS011;2938;52.254;12.988;2024-01-07T08:30:43;5.10;;;2.03;;
5823;SDS011;2938;52.254;12.988;2024-01-07T08:33:09;2.97;;;2.15;;
5823;SDS011;2938;52.254;12.988;2024-01-07T08:35:35;3.53;;;1.98;;
5823;SDS011;2938;52.254;12.988;2024-01-07T08:38:01;5.85;;;2.40;;
5823;SDS011;2938;52.254;12.988;2024-01-07T08:40:26;3.13;;;1.80;;
5823;SDS011;2938;52.254;12.988;2024-01-07T08:42:52;10.30;;;2.85;;
5823;SDS011;2938;52.254;12.988;2024-01-07T08:45:17;3.97;;;2.05;;
5823;SDS011;2938;52.254;12.988;2024-01-07T08:47:43;9.55;;;2.22;;
5823;SDS011;2938;52.254;12.988;2024-01-07T08:52:33;1.67;;;1.58;;
5823;SDS011;2938;52.254;12.988;2024-01-07T08:57:24;4.82;;;2.60;;
5823;SDS011;2938;52.254;12.988;2024-01-07T08:59:50;4.43;;;2.35;;
5823;SDS011;2938;52.254;12.988;2024-01-07T09:02:15;3.65;;;2.25;;
5823;SDS011;2938;52.254;12.988;2024-01-07T09:04:40;8.43;;;3.85;;
5823;SDS011;2938;52.254;12.988;2024-01-07T09:07:06;4.75;;;2.72;;
5823;SDS011;2938;52.254;12.988;2024-01-07T09:09:32;13.70;;;2.00;;
5823;SDS011;2938;52.254;12.988;2024-01-07T09:12:00;3.10;;;1.73;;
5823;SDS011;2938;52.254;12.988;2024-01-07T09:14:26;4.85;;;1.95;;
5823;SDS011;2938;52.254;12.988;2024-01-07T09:16:51;4.55;;;1.35;;
5823;SDS011;2938;52.254;12.988;2024-01-07T09:19:16;4.00;;;1.50;;
5823;SDS011;2938;52.254;12.988;2024-01-07T09:21:42;3.83;;;1.88;;
5823;SDS011;2938;52.254;12.988;2024-01-07T09:24:08;2.33;;;1.98;;
5823;SDS011;2938;52.254;12.988;2024-01-07T09:26:34;4.95;;;3.25;;
5823;SDS011;2938;52.254;12.988;2024-01-07T09:28:59;9.45;;;3.45;;
5823;SDS011;2938;52.254;12.988;2024-01-07T09:31:26;7.30;;;2.25;;
5823;SDS011;2938;52.254;12.988;2024-01-07T09:33:51;3.47;;;1.88;;
5823;SDS011;2938;52.254;12.988;2024-01-07T09:36:17;3.03;;;1.40;;
5823;SDS011;2938;52.254;12.988;2024-01-07T09:38:43;8.38;;;2.45;;
5823;SDS011;2938;52.254;12.988;2024-01-07T09:41:09;10.50;;;2.28;;
5823;SDS011;2938;52.254;12.988;2024-01-07T09:43:35;2.53;;;1.77;;
5823;SDS011;2938;52.254;12.988;2024-01-07T09:46:01;3.35;;;2.17;;
5823;SDS011;2938;52.254;12.988;2024-01-07T09:48:27;14.10;;;3.25;;
5823;SDS011;2938;52.254;12.988;2024-01-07T09:50:52;4.10;;;2.35;;
5823;SDS011;2938;52.254;12.988;2024-01-07T09:53:19;4.88;;;2.00;;
5823;SDS011;2938;52.254;12.988;2024-01-07T09:55:50;8.13;;;2.22;;
5823;SDS011;2938;52.254;12.988;2024-01-07T09:58:18;6.05;;;3.00;;
5823;SDS011;2938;52.254;12.988;2024-01-07T10:00:43;3.55;;;2.53;;
5823;SDS011;2938;52.254;12.988;2024-01-07T10:03:09;5.65;;;2.15;;
5823;SDS011;2938;52.254;12.988;2024-01-07T10:05:34;8.30;;;3.22;;
5823;SDS011;2938;52.254;12.988;2024-01-07T10:08:00;4.18;;;3.10;;
5823;SDS011;2938;52.254;12.988;2024-01-07T10:10:25;4.82;;;3.33;;
5823;SDS011;2938;52.254;12.988;2024-01-07T10:12:51;5.57;;;2.85;;
5823;SDS011;2938;52.254;12.988;2024-01-07T10:15:18;5.50;;;2.53;;
5823;SDS011;2938;52.254;12.988;2024-01-07T10:17:43;9.10;;;3.05;;
5823;SDS011;2938;52.254;12.988;2024-01-07T10:20:10;2.85;;;2.03;;
5823;SDS011;2938;52.254;12.988;2024-01-07T10:22:36;3.78;;;2.63;;
5823;SDS011;2938;52.254;12.988;2024-01-07T10:25:03;8.25;;;2.80;;
5823;SDS011;2938;52.254;12.988;2024-01-07T10:27:29;5.20;;;2.78;;
5823;SDS011;2938;52.254;12.988;2024-01-07T10:29:55;4.88;;;2.60;;
5823;SDS011;2938;52.254;12.988;2024-01-07T10:32:23;4.32;;;2.72;;
5823;SDS011;2938;52.254;12.988;2024-01-07T10:34:50;3.63;;;2.42;;
5823;SDS011;2938;52.254;12.988;2024-01-07T10:37:20;5.03;;;2.22;;
5823;SDS011;2938;52.254;12.988;2024-01-07T10:39:48;5.32;;;2.88;;
5823;SDS011;2938;52.254;12.988;2024-01-07T10:42:14;4.18;;;2.78;;
5823;SDS011;2938;52.254;12.988;2024-01-07T10:44:41;3.70;;;2.70;;
5823;SDS011;2938;52.254;12.988;2024-01-07T10:47:07;5.10;;;3.30;;
5823;SDS011;2938;52.254;12.988;2024-01-07T10:49:35;3.95;;;3.35;;
5823;SDS011;2938;52.254;12.988;2024-01-07T10:52:03;12.32;;;2.95;;
5823;SDS011;2938;52.254;12.988;2024-01-07T10:54:30;3.63;;;2.63;;
5823;SDS011;2938;52.254;12.988;2024-01-07T10:56:58;8.27;;;2.83;;
5823;SDS011;2938;52.254;12.988;2024-01-07T10:59:25;6.78;;;3.58;;
5823;SDS011;2938;52.254;12.988;2024-01-07T11:01:51;6.43;;;3.45;;
5823;SDS011;2938;52.254;12.988;2024-01-07T11:04:24;6.35;;;3.17;;
5823;SDS011;2938;52.254;12.988;2024-01-07T11:07:03;10.43;;;4.25;;
5823;SDS011;2938;52.254;12.988;2024-01-07T11:12:01;10.63;;;5.50;;
5823;SDS011;2938;52.254;12.988;2024-01-07T11:14:34;10.45;;;4.53;;
5823;SDS011;2938;52.254;12.988;2024-01-07T11:17:02;8.30;;;4.65;;
5823;SDS011;2938;52.254;12.988;2024-01-07T11:19:28;10.15;;;5.10;;
5823;SDS011;2938;52.254;12.988;2024-01-07T11:24:49;8.75;;;4.70;;
5823;SDS011;2938;52.254;12.988;2024-01-07T11:27:15;7.40;;;4.07;;
5823;SDS011;2938;52.254;12.988;2024-01-07T11:29:41;8.95;;;5.53;;
5823;SDS011;2938;52.254;12.988;2024-01-07T11:32:07;6.97;;;4.05;;
5823;SDS011;2938;52.254;12.988;2024-01-07T11:37:14;11.33;;;4.83;;
5823;SDS011;2938;52.254;12.988;2024-01-07T11:39:42;7.05;;;4.30;;
5823;SDS011;2938;52.254;12.988;2024-01-07T11:42:08;8.27;;;4.78;;
5823;SDS011;2938;52.254;12.988;2024-01-07T11:44:34;8.43;;;4.18;;
5823;SDS011;2938;52.254;12.988;2024-01-07T11:47:02;11.75;;;5.20;;
5823;SDS011;2938;52.254;12.988;2024-01-07T11:49:29;7.32;;;4.40;;
5823;SDS011;2938;52.254;12.988;2024-01-07T11:51:55;9.18;;;4.55;;
5823;SDS011;2938;52.254;12.988;2024-01-07T11:54:20;9.93;;;5.47;;
5823;SDS011;2938;52.254;12.988;2024-01-07T11:56:47;12.40;;;5.45;;
5823;SDS011;2938;52.254;12.988;2024-01-07T11:59:12;10.13;;;4.75;;
5823;SDS011;2938;52.254;12.988;2024-01-07T12:01:38;9.95;;;5.28;;
5823;SDS011;2938;52.254;12.988;2024-01-07T12:04:04;6.07;;;4.95;;
5823;SDS011;2938;52.254;12.988;2024-01-07T12:06:29;8.40;;;4.88;;
5823;SDS011;2938;52.254;12.988;2024-01-07T12:08:56;5.68;;;4.38;;
5823;SDS011;2938;52.254;12.988;2024-01-07T12:11:22;8.48;;;5.35;;
5823;SDS011;2938;52.254;12.988;2024-01-07T12:13:48;6.78;;;4.20;;
5823;SDS011;2938;52.254;12.988;2024-01-07T12:16:15;8.68;;;5.28;;
5823;SDS011;2938;52.254;12.988;2024-01-07T12:18:41;8.02;;;5.05;;
5823;SDS011;2938;52.254;12.988;2024-01-07T12:21:09;15.45;;;6.22;;
5823;SDS011;2938;52.254;12.988;2024-01-07T12:23:35;8.15;;;5.50;;
5823;SDS011;2938;52.254;12.988;2024-01-07T12:26:09;8.30;;;4.47;;
5823;SDS011;2938;52.254;12.988;2024-01-07T12:28:35;16.67;;;5.03;;
5823;SDS011;2938;52.254;12.988;2024-01-07T12:31:03;6.13;;;4.10;;
5823;SDS011;2938;52.254;12.988;2024-01-07T12:33:29;11.38;;;5.53;;
5823;SDS011;2938;52.254;12.988;2024-01-07T12:35:56;10.18;;;5.63;;
5823;SDS011;2938;52.254;12.988;2024-01-07T12:38:23;7.13;;;4.85;;
5823;SDS011;2938;52.254;12.988;2024-01-07T12:40:49;10.50;;;5.57;;
5823;SDS011;2938;52.254;12.988;2024-01-07T12:43:15;6.70;;;5.05;;
5823;SDS011;2938;52.254;12.988;2024-01-07T12:45:40;7.60;;;5.10;;
5823;SDS011;2938;52.254;12.988;2024-01-07T12:48:06;7.13;;;4.47;;
5823;SDS011;2938;52.254;12.988;2024-01-07T12:52:57;8.10;;;4.38;;
5823;SDS011;2938;52.254;12.988;2024-01-07T12:55:23;9.60;;;4.75;;
5823;SDS011;2938;52.254;12.988;2024-01-07T12:57:50;6.97;;;3.97;;
5823;SDS011;2938;52.254;12.988;2024-01-07T13:00:15;9.27;;;4.85;;
5823;SDS011;2938;52.254;12.988;2024-01-07T13:02:42;5.07;;;3.53;;
5823;SDS011;2938;52.254;12.988;2024-01-07T13:05:07;6.53;;;4.35;;
5823;SDS011;2938;52.254;12.988;2024-01-07T13:07:33;10.02;;;4.10;;
5823;SDS011;2938;52.254;12.988;2024-01-07T13:09:59;4.70;;;3.47;;
5823;SDS011;2938;52.254;12.988;2024-01-07T13:17:17;5.90;;;3.67;;
5823;SDS011;2938;52.254;12.988;2024-01-07T13:19:47;5.50;;;3.70;;
5823;SDS011;2938;52.254;12.988;2024-01-07T13:22:12;3.38;;;2.75;;
5823;SDS011;2938;52.254;12.988;2024-01-07T13:27:05;4.72;;;3.45;;
5823;SDS011;2938;52.254;12.988;2024-01-07T13:29:30;6.05;;;3.45;;
5823;SDS011;2938;52.254;12.988;2024-01-07T13:31:56;7.47;;;3.85;;
5823;SDS011;2938;52.254;12.988;2024-01-07T13:34:22;4.70;;;3.70;;
5823;SDS011;2938;52.254;12.988;2024-01-07T13:36:49;23.67;;;3.85;;
5823;SDS011;2938;52.254;12.988;2024-01-07T13:39:16;5.88;;;2.58;;
5823;SDS011;2938;52.254;12.988;2024-01-07T13:41:42;7.50;;;3.45;;
5823;SDS011;2938;52.254;12.988;2024-01-07T13:44:09;5.35;;;3.20;;
5823;SDS011;2938;52.254;12.988;2024-01-07T13:46:43;6.93;;;3.65;;
5823;SDS011;2938;52.254;12.988;2024-01-07T13:49:10;3.35;;;2.80;;
5823;SDS011;2938;52.254;12.988;2024-01-07T13:51:36;7.57;;;3.03;;
5823;SDS011;2938;52.254;12.988;2024-01-07T13:54:03;4.88;;;2.95;;
5823;SDS011;2938;52.254;12.988;2024-01-07T13:56:32;6.22;;;3.65;;
5823;SDS011;2938;52.254;12.988;2024-01-07T13:59:01;5.85;;;4.03;;
5823;SDS011;2938;52.254;12.988;2024-01-07T14:01:28;6.90;;;3.10;;
5823;SDS011;2938;52.254;12.988;2024-01-07T14:03:54;5.13;;;3.47;;
5823;SDS011;2938;52.254;12.988;2024-01-07T14:06:19;3.30;;;2.30;;
5823;SDS011;2938;52.254;12.988;2024-01-07T14:08:44;5.75;;;3.28;;
5823;SDS011;2938;52.254;12.988;2024-01-07T14:11:10;6.70;;;2.92;;
5823;SDS011;2938;52.254;12.988;2024-01-07T14:13:35;3.67;;;2.70;;
5823;SDS011;2938;52.254;12.988;2024-01-07T14:16:02;3.85;;;2.15;;
5823;SDS011;2938;52.254;12.988;2024-01-07T14:18:31;10.23;;;2.40;;
5823;SDS011;2938;52.254;12.988;2024-01-07T14:20:57;7.15;;;2.95;;
5823;SDS011;2938;52.254;12.988;2024-01-07T14:23:22;11.63;;;3.20;;
5823;SDS011;2938;52.254;12.988;2024-01-07T14:25:48;9.23;;;3.92;;
5823;SDS011;2938;52.254;12.988;2024-01-07T14:28:14;3.88;;;2.90;;
5823;SDS011;2938;52.254;12.988;2024-01-07T14:30:39;3.88;;;2.50;;
5823;SDS011;2938;52.254;12.988;2024-01-07T14:33:05;5.60;;;2.83;;
5823;SDS011;2938;52.254;12.988;2024-01-07T14:35:42;7.05;;;2.72;;
5823;SDS011;2938;52.254;12.988;2024-01-07T14:38:08;6.35;;;2.55;;
5823;SDS011;2938;52.254;12.988;2024-01-07T14:40:33;4.63;;;3.10;;
5823;SDS011;2938;52.254;12.988;2024-01-07T14:42:59;5.40;;;2.63;;
5823;SDS011;2938;52.254;12.988;2024-01-07T14:45:25;3.00;;;2.13;;
5823;SDS011;2938;52.254;12.988;2024-01-07T14:47:51;3.05;;;2.10;;
5823;SDS011;2938;52.254;12.988;2024-01-07T14:50:17;3.80;;;2.95;;
5823;SDS011;2938;52.254;12.988;2024-01-07T14:52:43;3.80;;;2.28;;
5823;SDS011;2938;52.254;12.988;2024-01-07T14:55:09;6.63;;;2.90;;
5823;SDS011;2938;52.254;12.988;2024-01-07T14:57:35;4.60;;;2.85;;
5823;SDS011;2938;52.254;12.988;2024-01-07T15:00:01;5.25;;;2.38;;
5823;SDS011;2938;52.254;12.988;2024-01-07T15:02:28;6.25;;;2.58;;
5823;SDS011;2938;52.254;12.988;2024-01-07T15:04:54;3.25;;;2.35;;
5823;SDS011;2938;52.254;12.988;2024-01-07T15:07:20;4.45;;;2.63;;
5823;SDS011;2938;52.254;12.988;2024-01-07T15:09:46;4.65;;;2.83;;
5823;SDS011;2938;52.254;12.988;2024-01-07T15:12:12;3.67;;;2.45;;
5823;SDS011;2938;52.254;12.988;2024-01-07T15:14:37;2.17;;;2.00;;
5823;SDS011;2938;52.254;12.988;2024-01-07T15:17:03;9.00;;;3.10;;
5823;SDS011;2938;52.254;12.988;2024-01-07T15:19:29;10.43;;;2.13;;
5823;SDS011;2938;52.254;12.988;2024-01-07T15:21:57;2.70;;;2.20;;